Time;durP1;ratioP1;P1;durP2;ratioP2;P2;SDS_P1;SDS_P2;PMS_P1;PMS_P2;Temp;Humidity;BMP_temperature;BMP_pressure;BME280_temperature;BME280_humidity;BME280_pressure;Samples;Min_cycle;Max_cycle;Signal;HPM_P1;HPM_P2
2022/11/15 00:00:50;;;;;;;13.90;12.40;;;11.60;83.20;;;-142.21;100.00;112049.66;5012793;28;20476;-74
2022/11/15 00:03:23;;;;;;;12.67;11.30;;;11.60;83.10;;;-142.21;100.00;112049.66;5012681;28;20486;-75
2022/11/15 00:05:52;;;;;;;13.20;11.80;;;11.70;83.10;;;-142.21;100.00;112049.66;5013680;28;20533;-74
2022/11/15 00:08:20;;;;;;;12.67;10.83;;;11.70;83.00;;;-142.21;100.00;112049.66;5012844;28;20453;-74
2022/11/15 00:10:56;;;;;;;11.67;10.47;;;11.70;82.70;;;-142.21;100.00;112049.66;4999683;28;20487;-74
2022/11/15 00:13:23;;;;;;;13.93;11.13;;;11.80;82.70;;;-142.21;100.00;112049.66;5012851;28;20438;-74
2022/11/15 00:15:51;;;;;;;12.47;11.27;;;11.80;82.50;;;-142.21;100.00;112049.66;5013207;28;20441;-74
2022/11/15 00:18:20;;;;;;;14.47;11.90;;;11.70;82.40;;;-142.21;100.00;112049.66;5008633;28;20927;-75
2022/11/15 00:20:47;;;;;;;14.37;11.30;;;11.80;82.30;;;-142.21;100.00;112049.66;5028902;28;20937;-74
2022/11/15 00:23:16;;;;;;;12.83;10.87;;;11.80;82.30;;;-142.21;100.00;112049.66;5024751;28;20454;-74
2022/11/15 00:25:43;;;;;;;11.67;10.50;;;11.80;82.20;;;-142.21;100.00;112049.66;5021811;28;20459;-74
2022/11/15 00:28:10;;;;;;;12.13;10.83;;;11.80;82.20;;;-142.21;100.00;112049.66;5029460;28;20528;-74
2022/11/15 00:30:38;;;;;;;14.57;10.63;;;11.80;82.30;;;-142.21;100.00;112049.66;5031504;28;20473;-74
2022/11/15 00:33:06;;;;;;;13.47;10.90;;;11.80;82.20;;;-142.21;100.00;112049.66;5019084;28;20437;-74
2022/11/15 00:35:34;;;;;;;14.67;11.00;;;11.80;83.10;;;-142.21;100.00;112049.66;5026501;28;21014;-74
2022/11/15 00:38:03;;;;;;;12.03;10.23;;;11.80;82.40;;;-142.21;100.00;112049.66;5013274;28;20978;-74
2022/11/15 00:40:32;;;;;;;11.80;10.60;;;11.80;82.40;;;-142.21;100.00;112049.66;5021422;28;20464;-74
2022/11/15 00:43:00;;;;;;;10.50;9.47;;;11.90;82.40;;;-142.21;100.00;112049.66;5026921;28;20882;-74
2022/11/15 00:45:27;;;;;;;13.20;11.80;;;11.90;82.40;;;-142.21;100.00;112049.66;5021731;28;20452;-74
2022/11/15 00:47:55;;;;;;;12.37;11.00;;;11.90;82.70;;;-142.21;100.00;112049.66;5023402;28;20477;-74
2022/11/15 00:50:22;;;;;;;12.50;9.93;;;11.90;82.90;;;-142.21;100.00;112049.66;5019380;28;20469;-74
2022/11/15 00:52:49;;;;;;;11.53;10.43;;;11.90;82.60;;;-142.21;100.00;112049.66;5030390;28;20463;-74
2022/11/15 00:55:18;;;;;;;11.97;10.63;;;11.90;82.70;;;-142.21;100.00;112049.66;5019862;28;20477;-73
2022/11/15 00:57:47;;;;;;;12.13;10.67;;;11.90;82.90;;;-142.21;100.00;112049.66;5021710;28;20453;-74
2022/11/15 01:00:15;;;;;;;13.30;11.20;;;11.90;82.80;;;-142.21;100.00;112049.66;5014610;28;20819;-74
2022/11/15 01:02:42;;;;;;;12.23;10.30;;;11.90;82.70;;;-142.21;100.00;112049.66;5016287;28;20446;-73
2022/11/15 01:05:10;;;;;;;14.13;10.53;;;11.90;82.60;;;-142.21;100.00;112049.66;5018815;28;20445;-73
2022/11/15 01:07:39;;;;;;;12.53;10.73;;;11.90;82.30;;;-142.21;100.00;112049.66;5032568;28;20476;-73
2022/11/15 01:10:07;;;;;;;11.07;9.93;;;11.90;82.50;;;-142.21;100.00;112049.66;5026186;28;20533;-74
2022/11/15 01:12:35;;;;;;;11.40;10.20;;;11.90;82.60;;;-142.21;100.00;112049.66;5013397;28;20575;-73
2022/11/15 01:15:04;;;;;;;11.87;10.03;;;11.90;83.30;;;-142.21;100.00;112049.66;5022582;28;20794;-74
2022/11/15 01:17:32;;;;;;;11.40;10.23;;;11.90;82.50;;;-142.21;100.00;112049.66;5019037;28;20473;-73
2022/11/15 01:19:59;;;;;;;10.10;9.10;;;11.90;82.70;;;-142.21;100.00;112049.66;5020696;28;20482;-73
2022/11/15 01:22:27;;;;;;;11.73;9.90;;;11.90;82.70;;;-142.21;100.00;112049.66;5024205;28;20469;-73
2022/11/15 01:24:54;;;;;;;10.83;9.70;;;11.90;82.50;;;-142.21;100.00;112049.66;5015277;28;20448;-73
2022/11/15 01:27:21;;;;;;;10.10;8.97;;;11.90;82.50;;;-142.21;100.00;112049.66;5024332;28;20456;-73
2022/11/15 01:29:48;;;;;;;11.37;10.07;;;12.00;82.60;;;-142.21;100.00;112049.66;5018597;28;20902;-73
2022/11/15 01:32:18;;;;;;;11.07;9.83;;;11.90;82.70;;;-142.21;100.00;112049.66;5014258;28;20517;-73
2022/11/15 01:34:45;;;;;;;10.90;9.83;;;11.90;82.90;;;-142.21;100.00;112049.66;5023430;28;20454;-73
2022/11/15 01:37:12;;;;;;;10.73;8.80;;;11.90;82.80;;;-142.21;100.00;112049.66;5017244;28;21011;-74
2022/11/15 01:39:39;;;;;;;10.73;9.63;;;11.90;82.70;;;-142.21;100.00;112049.66;5029366;28;20889;-73
2022/11/15 01:42:09;;;;;;;10.13;9.13;;;11.90;83.40;;;-142.21;100.00;112049.66;5013791;28;20452;-73
2022/11/15 01:44:44;;;;;;;10.50;9.40;;;11.90;82.80;;;-142.21;100.00;112049.66;5026480;28;20532;-73
2022/11/15 01:47:20;;;;;;;11.63;10.13;;;11.90;83.00;;;-142.21;100.00;112049.66;5030689;28;20529;-72
2022/11/15 01:49:57;;;;;;;10.07;9.07;;;11.80;83.30;;;-142.21;100.00;112049.66;5025666;28;20564;-74
2022/11/15 01:52:29;;;;;;;12.23;10.80;;;11.80;83.30;;;-142.21;100.00;112049.66;5026120;28;20501;-73
2022/11/15 01:55:04;;;;;;;10.73;9.57;;;11.80;84.00;;;-142.21;100.00;112049.66;5029862;28;20535;-74
2022/11/15 01:57:32;;;;;;;11.67;9.47;;;11.70;84.20;;;-142.21;100.00;112049.66;5022226;28;20469;-74
2022/11/15 02:00:02;;;;;;;10.80;9.70;;;11.80;84.20;;;-142.21;100.00;112049.66;5012318;28;20553;-74
2022/11/15 02:02:33;;;;;;;11.07;9.97;;;11.80;84.00;;;-142.21;100.00;112049.66;5022723;28;20945;-74
2022/11/15 02:05:01;;;;;;;10.83;8.90;;;11.90;84.00;;;-142.21;100.00;112049.66;5012805;28;20504;-74
2022/11/15 02:07:31;;;;;;;10.20;9.20;;;11.90;83.40;;;-142.21;100.00;112049.66;5014740;28;20450;-74
2022/11/15 02:10:05;;;;;;;15.07;10.57;;;12.00;83.70;;;-142.21;100.00;112049.66;5021685;28;21173;-74
2022/11/15 02:12:32;;;;;;;11.73;10.40;;;11.90;84.00;;;-142.21;100.00;112049.66;5019819;28;20513;-74
2022/11/15 02:15:00;;;;;;;11.17;10.00;;;12.00;83.80;;;-142.21;100.00;112049.66;5029917;28;20456;-73
2022/11/15 02:17:52;;;;;;;11.23;10.07;;;12.00;83.60;;;-142.21;100.00;112049.66;5023199;28;20532;-75
2022/11/15 02:20:50;;;;;;;12.03;9.53;;;12.00;83.60;;;-142.21;100.00;112049.66;4977660;28;20606;-75
2022/11/15 02:24:11;;;;;;;10.73;8.87;;;12.10;83.90;;;-142.21;100.00;112049.66;5005617;28;20537;-74
2022/11/15 02:27:42;;;;;;;10.23;8.40;;;12.10;83.80;;;-142.21;100.00;112049.66;4994027;28;20934;-75
2022/11/15 02:30:25;;;;;;;8.97;8.07;;;12.10;83.60;;;-142.21;100.00;112049.66;4969978;28;20788;-75
2022/11/15 02:32:59;;;;;;;10.17;8.27;;;12.10;83.50;;;-142.21;100.00;112049.66;4991483;28;20545;-75
2022/11/15 02:35:43;;;;;;;9.07;7.40;;;12.10;83.30;;;-142.21;100.00;112049.66;5004540;28;20869;-75
2022/11/15 02:38:23;;;;;;;9.60;8.30;;;12.10;83.40;;;-142.21;100.00;112049.66;5011070;28;20473;-75
2022/11/15 02:40:58;;;;;;;9.43;7.73;;;12.10;83.50;;;-142.21;100.00;112049.66;5010103;28;20443;-74
2022/11/15 02:43:59;;;;;;;9.57;8.67;;;12.10;83.30;;;-142.21;100.00;112049.66;5004290;28;20548;-75
2022/11/15 02:49:21;;;;;;;14.00;9.73;;;12.10;83.30;;;-142.21;100.00;112049.66;4995426;28;20446;-75
2022/11/15 02:51:51;;;;;;;11.10;9.97;;;12.10;83.30;;;-142.21;100.00;112049.66;4997064;28;20518;-74
2022/11/15 02:54:24;;;;;;;10.80;9.23;;;12.00;83.50;;;-142.21;100.00;112049.66;5011745;28;20474;-74
2022/11/15 02:56:56;;;;;;;11.33;10.13;;;12.00;83.40;;;-142.21;100.00;112049.66;5013136;28;20478;-73
2022/11/15 03:00:03;;;;;;;10.37;8.57;;;12.00;83.40;;;-142.21;100.00;112049.66;5003606;28;20442;-74
2022/11/15 03:02:56;;;;;;;10.33;9.03;;;12.10;83.70;;;-142.21;100.00;112049.66;4997424;28;20454;-75
2022/11/15 03:05:35;;;;;;;10.67;9.20;;;12.10;83.90;;;-142.21;100.00;112049.66;4995446;28;20525;-74
2022/11/15 03:08:11;;;;;;;11.47;9.27;;;12.10;83.90;;;-142.21;100.00;112049.66;5004447;28;20525;-74
2022/11/15 03:10:53;;;;;;;12.43;9.63;;;12.10;83.90;;;-142.21;100.00;112049.66;5008302;28;20439;-74
2022/11/15 03:13:28;;;;;;;10.87;9.43;;;12.00;84.10;;;-142.21;100.00;112049.66;4998112;28;20514;-74
2022/11/15 03:16:05;;;;;;;10.67;9.57;;;12.00;84.30;;;-142.21;100.00;112049.66;4999998;28;20525;-75
2022/11/15 03:18:39;;;;;;;10.50;9.40;;;12.00;84.50;;;-142.21;100.00;112049.66;4997208;28;20855;-74
2022/11/15 03:21:11;;;;;;;10.40;9.30;;;12.00;84.50;;;-142.21;100.00;112049.66;5015995;28;21003;-74
2022/11/15 03:23:40;;;;;;;11.83;9.50;;;12.10;84.50;;;-142.21;100.00;112049.66;5015203;28;20442;-74
2022/11/15 03:26:13;;;;;;;11.00;9.67;;;12.10;84.50;;;-142.21;100.00;112049.66;5022499;28;20540;-73
2022/11/15 03:28:47;;;;;;;10.27;9.03;;;12.10;84.20;;;-142.21;100.00;112049.66;5032783;28;20441;-75
2022/11/15 03:34:05;;;;;;;13.03;9.47;;;12.20;84.20;;;-142.21;100.00;112049.66;5014426;28;20521;-74
2022/11/15 03:36:35;;;;;;;11.20;9.00;;;12.20;84.20;;;-142.21;100.00;112049.66;5023909;28;20448;-73
2022/11/15 03:39:08;;;;;;;9.10;8.20;;;12.30;85.10;;;-142.21;100.00;112049.66;5015086;28;20621;-74
2022/11/15 03:41:44;;;;;;;11.50;9.60;;;12.30;84.10;;;-142.21;100.00;112049.66;5023970;28;20437;-74
2022/11/15 03:44:23;;;;;;;11.17;9.00;;;12.30;84.00;;;-142.21;100.00;112049.66;5034411;28;20774;-74
2022/11/15 03:47:02;;;;;;;10.93;9.83;;;12.30;84.20;;;-142.21;100.00;112049.66;5027159;28;20437;-73
2022/11/15 03:49:35;;;;;;;11.13;8.73;;;12.30;85.00;;;-142.21;100.00;112049.66;5013654;28;20476;-74
2022/11/15 03:52:04;;;;;;;9.67;8.77;;;12.40;84.20;;;-142.21;100.00;112049.66;5019382;28;20475;-74
2022/11/15 03:54:38;;;;;;;10.13;8.87;;;12.40;84.00;;;-142.21;100.00;112049.66;5033686;28;20508;-72
2022/11/15 03:57:05;;;;;;;10.27;8.80;;;12.40;84.20;;;-142.21;100.00;112049.66;5017641;28;20445;-72
2022/11/15 03:59:32;;;;;;;10.10;9.00;;;12.40;84.10;;;-142.21;100.00;112049.66;5027227;28;20961;-74
2022/11/15 04:01:59;;;;;;;10.90;9.00;;;12.50;84.10;;;-142.21;100.00;112049.66;5027781;28;20465;-74
2022/11/15 04:04:27;;;;;;;9.30;8.40;;;12.40;84.30;;;-142.21;100.00;112049.66;5028255;28;20486;-74
2022/11/15 04:06:55;;;;;;;9.70;8.13;;;12.40;84.80;;;-142.21;100.00;112049.66;5024096;28;20447;-74
2022/11/15 04:09:22;;;;;;;9.47;8.37;;;12.40;84.90;;;-142.21;100.00;112049.66;5029225;28;20532;-74
2022/11/15 04:11:50;;;;;;;10.33;8.23;;;12.40;85.00;;;-142.21;100.00;112049.66;5026798;28;20576;-74
2022/11/15 04:14:17;;;;;;;10.23;8.77;;;12.40;85.00;;;-142.21;100.00;112049.66;5032165;28;20444;-74
2022/11/15 04:16:45;;;;;;;9.93;8.90;;;12.40;84.90;;;-142.21;100.00;112049.66;5016937;28;20458;-74
2022/11/15 04:24:53;;;;;;;9.33;8.07;;;12.50;85.70;;;-142.21;100.00;112049.66;5024747;28;20434;-73
2022/11/15 04:27:20;;;;;;;8.97;7.70;;;12.50;84.60;;;-142.21;100.00;112049.66;5016173;28;20537;-74
2022/11/15 04:29:48;;;;;;;8.87;7.23;;;12.60;84.80;;;-142.21;100.00;112049.66;5031529;28;21001;-74
2022/11/15 04:32:15;;;;;;;8.20;6.87;;;12.60;85.10;;;-142.21;100.00;112049.66;5016540;28;20569;-75
2022/11/15 04:34:42;;;;;;;12.57;6.97;;;12.60;85.10;;;-142.21;100.00;112049.66;5016491;28;20541;-75
2022/11/15 04:37:12;;;;;;;7.60;6.77;;;12.60;85.10;;;-142.21;100.00;112049.66;5017906;28;20457;-75
2022/11/15 04:39:40;;;;;;;6.30;5.67;;;12.50;85.00;;;-142.21;100.00;112049.66;5031144;28;20434;-74
2022/11/15 04:42:09;;;;;;;8.97;6.90;;;12.60;85.20;;;-142.21;100.00;112049.66;5018538;28;20540;-75
2022/11/15 04:44:36;;;;;;;10.20;6.73;;;12.50;85.00;;;-142.21;100.00;112049.66;5032161;28;20864;-74
2022/11/15 04:47:04;;;;;;;8.47;7.07;;;12.60;85.10;;;-142.21;100.00;112049.66;5017466;28;20445;-75
2022/11/15 04:49:31;;;;;;;8.63;7.63;;;12.60;85.00;;;-142.21;100.00;112049.66;5027980;28;20548;-75
2022/11/15 04:51:59;;;;;;;8.13;7.30;;;12.60;84.80;;;-142.21;100.00;112049.66;5024049;28;20519;-74
2022/11/15 04:54:27;;;;;;;9.80;7.17;;;12.60;84.80;;;-142.21;100.00;112049.66;5025639;28;20450;-75
2022/11/15 04:56:55;;;;;;;7.83;7.03;;;12.60;84.80;;;-142.21;100.00;112049.66;5024340;28;20460;-75
2022/11/15 04:59:22;;;;;;;7.67;6.70;;;12.60;84.80;;;-142.21;100.00;112049.66;5012717;28;20532;-74
2022/11/15 05:01:49;;;;;;;6.87;6.13;;;12.60;84.50;;;-142.21;100.00;112049.66;5030043;28;20445;-75
2022/11/15 05:04:21;;;;;;;7.03;6.43;;;12.70;84.80;;;-142.21;100.00;112049.66;5030683;28;20488;-74
2022/11/15 05:06:50;;;;;;;8.10;7.30;;;12.60;84.70;;;-142.21;100.00;112049.66;5021509;28;20529;-74
2022/11/15 05:09:18;;;;;;;8.10;7.30;;;12.70;84.80;;;-142.21;100.00;112049.66;5011589;28;20446;-74
2022/11/15 05:11:47;;;;;;;8.47;7.47;;;12.70;84.80;;;-142.21;100.00;112049.66;5024481;28;20881;-75
2022/11/15 05:14:15;;;;;;;7.33;6.60;;;12.70;84.70;;;-142.21;100.00;112049.66;5029239;28;20833;-74
2022/11/15 05:16:43;;;;;;;8.13;6.83;;;12.70;84.70;;;-142.21;100.00;112049.66;5017737;28;20507;-74
2022/11/15 05:19:10;;;;;;;9.60;7.40;;;12.70;84.80;;;-142.21;100.00;112049.66;5013783;28;20505;-74
2022/11/15 05:21:38;;;;;;;10.50;6.60;;;12.70;84.70;;;-142.21;100.00;112049.66;5013245;28;20937;-74
2022/11/15 05:24:06;;;;;;;7.17;6.47;;;12.70;84.60;;;-142.21;100.00;112049.66;5020101;28;20445;-74
2022/11/15 05:26:34;;;;;;;7.83;7.13;;;12.70;84.80;;;-142.21;100.00;112049.66;5028578;28;20459;-74
2022/11/15 05:29:02;;;;;;;8.33;6.90;;;12.70;84.70;;;-142.21;100.00;112049.66;5016941;28;20472;-74
2022/11/15 05:31:29;;;;;;;6.93;6.27;;;12.70;85.10;;;-142.21;100.00;112049.66;5022985;28;20487;-74
2022/11/15 05:34:00;;;;;;;9.30;7.03;;;12.70;85.10;;;-142.21;100.00;112049.66;5030650;28;20567;-74
2022/11/15 05:36:34;;;;;;;6.83;6.20;;;12.70;85.20;;;-142.21;100.00;112049.66;5024604;28;20851;-74
2022/11/15 05:39:02;;;;;;;11.67;7.10;;;12.70;85.30;;;-142.21;100.00;112049.66;5024433;28;20525;-74
2022/11/15 05:41:36;;;;;;;8.00;6.40;;;12.70;85.30;;;-142.21;100.00;112049.66;5019570;28;20544;-74
2022/11/15 05:44:10;;;;;;;8.00;7.17;;;12.70;85.20;;;-142.21;100.00;112049.66;5020917;28;20524;-74
2022/11/15 05:46:41;;;;;;;7.87;7.07;;;12.70;85.00;;;-142.21;100.00;112049.66;5030056;28;20446;-74
2022/11/15 05:49:16;;;;;;;8.17;6.93;;;12.60;85.20;;;-142.21;100.00;112049.66;5032270;28;20467;-74
2022/11/15 05:51:46;;;;;;;7.77;7.00;;;12.60;85.20;;;-142.21;100.00;112049.66;5017696;28;20448;-74
2022/11/15 05:54:18;;;;;;;7.97;7.17;;;12.60;85.10;;;-142.21;100.00;112049.66;5027133;28;20862;-72
2022/11/15 05:56:47;;;;;;;7.50;6.80;;;12.60;85.20;;;-142.21;100.00;112049.66;5018070;28;20440;-73
2022/11/15 05:59:16;;;;;;;9.27;7.13;;;12.60;85.20;;;-142.21;100.00;112049.66;5023277;28;20541;-75
2022/11/15 06:01:43;;;;;;;7.80;6.67;;;12.60;85.00;;;-142.21;100.00;112049.66;5020327;28;20480;-74
2022/11/15 06:04:10;;;;;;;8.43;6.70;;;12.60;84.80;;;-142.21;100.00;112049.66;5032253;28;20477;-75
2022/11/15 06:06:38;;;;;;;8.87;6.73;;;12.60;84.60;;;-142.21;100.00;112049.66;5015746;28;20450;-75
2022/11/15 06:09:05;;;;;;;6.77;6.03;;;12.60;84.60;;;-142.21;100.00;112049.66;5028857;28;20532;-75
2022/11/15 06:11:32;;;;;;;7.63;6.60;;;12.60;84.80;;;-142.21;100.00;112049.66;5013875;28;20497;-74
2022/11/15 06:13:59;;;;;;;7.83;6.47;;;12.50;84.50;;;-142.21;100.00;112049.66;5012015;28;20928;-75
2022/11/15 06:16:28;;;;;;;8.77;6.43;;;12.50;84.60;;;-142.21;100.00;112049.66;5024081;28;20839;-75
2022/11/15 06:18:55;;;;;;;7.03;6.33;;;12.50;84.80;;;-142.21;100.00;112049.66;5014047;28;20509;-75
2022/11/15 06:21:22;;;;;;;6.93;6.33;;;12.50;84.50;;;-142.21;100.00;112049.66;5030016;28;20449;-75
2022/11/15 06:23:50;;;;;;;6.50;5.80;;;12.60;84.40;;;-142.21;100.00;112049.66;5025201;28;20528;-74
2022/11/15 06:26:17;;;;;;;7.07;6.37;;;12.50;84.10;;;-142.21;100.00;112049.66;5029265;28;20500;-75
2022/11/15 06:28:44;;;;;;;7.90;6.27;;;12.50;84.00;;;-142.21;100.00;112049.66;5017959;28;20524;-75
2022/11/15 06:31:12;;;;;;;8.20;6.67;;;12.50;84.10;;;-142.21;100.00;112049.66;5035870;28;20554;-75
2022/11/15 06:33:41;;;;;;;7.10;6.40;;;12.50;84.40;;;-142.21;100.00;112049.66;5024112;28;20504;-71
2022/11/15 06:36:13;;;;;;;8.20;6.80;;;12.50;84.30;;;-142.21;100.00;112049.66;5024048;28;20449;-72
2022/11/15 06:38:40;;;;;;;7.10;6.40;;;12.50;84.60;;;-142.21;100.00;112049.66;5025018;28;20453;-73
2022/11/15 06:41:10;;;;;;;7.00;6.30;;;12.50;84.70;;;-142.21;100.00;112049.66;5015579;28;20481;-70
2022/11/15 06:43:38;;;;;;;6.57;5.97;;;12.60;84.80;;;-142.21;100.00;112049.66;5030069;28;20447;-70
2022/11/15 06:46:07;;;;;;;7.83;6.73;;;12.60;84.80;;;-142.21;100.00;112049.66;5035517;28;20448;-73
2022/11/15 06:48:35;;;;;;;7.17;6.47;;;12.50;84.80;;;-142.21;100.00;112049.66;5029841;28;20865;-72
2022/11/15 06:51:05;;;;;;;6.50;5.90;;;12.60;85.10;;;-142.21;100.00;112049.66;5030294;28;20455;-72
2022/11/15 06:53:33;;;;;;;8.17;7.00;;;12.60;85.30;;;-142.21;100.00;112049.66;5017696;28;20493;-73
2022/11/15 06:56:01;;;;;;;5.90;5.37;;;12.50;85.30;;;-142.21;100.00;112049.66;5015362;28;20600;-72
2022/11/15 06:58:29;;;;;;;6.67;5.23;;;12.50;85.10;;;-142.21;100.00;112049.66;5025366;28;20755;-72
2022/11/15 07:01:01;;;;;;;6.63;5.20;;;12.50;85.10;;;-142.21;100.00;112049.66;5032670;28;20472;-72
2022/11/15 07:03:28;;;;;;;5.57;4.97;;;12.60;85.20;;;-142.21;100.00;112049.66;5028736;28;20520;-73
2022/11/15 07:05:58;;;;;;;5.37;4.73;;;12.70;85.00;;;-142.21;100.00;112049.66;5032364;28;20449;-71
2022/11/15 07:08:29;;;;;;;5.93;5.30;;;12.60;85.10;;;-142.21;100.00;112049.66;5034464;28;20487;-72
2022/11/15 07:11:01;;;;;;;5.17;4.63;;;12.70;85.30;;;-142.21;100.00;112049.66;5024430;28;20446;-72
2022/11/15 07:13:32;;;;;;;5.20;4.70;;;12.70;85.30;;;-142.21;100.00;112049.66;5023112;28;20477;-72
2022/11/15 07:16:03;;;;;;;4.93;4.47;;;12.60;85.20;;;-142.21;100.00;112049.66;5033295;28;20445;-72
2022/11/15 07:18:30;;;;;;;5.37;4.63;;;12.60;85.30;;;-142.21;100.00;112049.66;5022850;28;20783;-72
2022/11/15 07:21:05;;;;;;;5.13;4.13;;;12.70;85.20;;;-142.21;100.00;112049.66;5028537;28;20448;-69
2022/11/15 07:23:34;;;;;;;5.03;4.57;;;12.80;85.40;;;-142.21;100.00;112049.66;5019985;28;20913;-72
2022/11/15 07:26:02;;;;;;;4.53;4.13;;;12.80;85.40;;;-142.21;100.00;112049.66;5019183;28;20856;-71
2022/11/15 07:28:29;;;;;;;6.33;4.43;;;12.70;85.20;;;-142.21;100.00;112049.66;5032329;28;20538;-72
2022/11/15 07:30:56;;;;;;;5.57;4.80;;;12.80;85.20;;;-142.21;100.00;112049.66;5027213;28;20537;-71
2022/11/15 07:33:23;;;;;;;7.30;5.00;;;12.80;85.30;;;-142.21;100.00;112049.66;5025367;28;20482;-72
2022/11/15 07:35:51;;;;;;;5.00;4.50;;;12.80;85.30;;;-142.21;100.00;112049.66;5015376;28;20541;-72
2022/11/15 07:38:19;;;;;;;4.90;4.23;;;12.80;85.30;;;-142.21;100.00;112049.66;5026706;28;20477;-72
2022/11/15 07:40:56;;;;;;;5.03;4.50;;;12.90;85.40;;;-142.21;100.00;112049.66;5017186;28;20449;-72
2022/11/15 07:43:23;;;;;;;6.80;4.90;;;12.90;85.30;;;-142.21;100.00;112049.66;5019374;28;20469;-72
2022/11/15 07:45:50;;;;;;;6.23;4.67;;;12.90;85.40;;;-142.21;100.00;112049.66;5033167;28;20540;-72
2022/11/15 07:48:17;;;;;;;5.77;4.27;;;12.90;85.40;;;-142.21;100.00;112049.66;5033904;28;20453;-73
2022/11/15 07:50:45;;;;;;;6.30;4.50;;;13.00;85.60;;;-142.21;100.00;112049.66;5033574;28;20449;-72
2022/11/15 07:53:12;;;;;;;5.10;4.20;;;13.00;85.50;;;-142.21;100.00;112049.66;5034363;28;20488;-73
2022/11/15 07:55:42;;;;;;;5.13;4.60;;;13.00;85.50;;;-142.21;100.00;112049.66;5027518;28;21007;-72
2022/11/15 07:58:12;;;;;;;6.27;4.67;;;13.00;85.70;;;-142.21;100.00;112049.66;5014440;28;20469;-72
2022/11/15 08:00:40;;;;;;;4.97;4.30;;;13.10;85.80;;;-142.21;100.00;112049.66;5013881;28;20823;-73
2022/11/15 08:03:09;;;;;;;4.80;4.10;;;13.10;85.70;;;-142.21;100.00;112049.66;5026044;28;20445;-71
2022/11/15 08:05:39;;;;;;;5.23;4.40;;;13.10;85.80;;;-142.21;100.00;112049.66;5013508;28;20450;-70
2022/11/15 08:08:07;;;;;;;4.80;4.13;;;13.10;85.70;;;-142.21;100.00;112049.66;5014147;28;20477;-71
2022/11/15 08:10:35;;;;;;;5.80;4.80;;;13.20;85.90;;;-142.21;100.00;112049.66;5013235;28;20477;-69
2022/11/15 08:13:05;;;;;;;5.37;4.67;;;13.30;86.00;;;-142.21;100.00;112049.66;5013959;28;20536;-69
2022/11/15 08:15:35;;;;;;;5.23;4.73;;;13.30;85.90;;;-142.21;100.00;112049.66;5013093;28;20482;-69
2022/11/15 08:18:07;;;;;;;6.30;5.70;;;13.30;85.90;;;-142.21;100.00;112049.66;5023736;28;20433;-70
2022/11/15 08:20:34;;;;;;;6.50;4.87;;;13.40;86.10;;;-142.21;100.00;112049.66;5033056;28;20481;-70
2022/11/15 08:23:04;;;;;;;8.23;5.50;;;13.50;86.10;;;-142.21;100.00;112049.66;5033763;28;20536;-69
2022/11/15 08:25:34;;;;;;;7.00;5.63;;;13.50;86.20;;;-142.21;100.00;112049.66;5033228;28;20425;-71
2022/11/15 08:28:04;;;;;;;5.67;5.07;;;13.50;86.10;;;-142.21;100.00;112049.66;5033439;28;20451;-70
2022/11/15 08:30:41;;;;;;;5.83;5.23;;;13.50;86.10;;;-142.21;100.00;112049.66;5033087;28;20481;-71
2022/11/15 08:33:13;;;;;;;6.37;5.00;;;13.60;86.00;;;-142.21;100.00;112049.66;5033538;28;20469;-71
2022/11/15 08:35:41;;;;;;;5.77;4.60;;;13.60;85.90;;;-142.21;100.00;112049.66;5032905;28;20524;-71
2022/11/15 08:38:09;;;;;;;5.50;5.00;;;13.70;85.90;;;-142.21;100.00;112049.66;5033537;28;20820;-71
2022/11/15 08:40:37;;;;;;;6.07;4.50;;;13.70;85.80;;;-142.21;100.00;112049.66;5032604;28;20449;-71
2022/11/15 08:43:05;;;;;;;6.00;4.57;;;13.70;86.00;;;-142.21;100.00;112049.66;5033098;28;20500;-70
2022/11/15 08:45:36;;;;;;;6.60;4.90;;;13.80;86.30;;;-142.21;100.00;112049.66;5032774;28;20945;-70
2022/11/15 08:48:05;;;;;;;4.83;3.83;;;13.90;86.60;;;-142.21;100.00;112049.66;5033262;28;20437;-70
2022/11/15 08:50:33;;;;;;;4.13;3.73;;;13.90;86.10;;;-142.21;100.00;112049.66;5033409;28;20453;-69
2022/11/15 08:53:08;;;;;;;5.03;4.53;;;13.90;85.80;;;-142.21;100.00;112049.66;5032955;28;20514;-70
2022/11/15 08:55:39;;;;;;;7.47;5.23;;;13.90;86.60;;;-142.21;100.00;112049.66;5032464;28;20440;-71
2022/11/15 08:58:06;;;;;;;9.40;7.17;;;14.00;85.60;;;-142.21;100.00;112049.66;5032829;28;20960;-71
2022/11/15 09:00:35;;;;;;;9.10;7.80;;;14.10;85.40;;;-142.21;100.00;112049.66;5032497;28;20519;-70
2022/11/15 09:03:05;;;;;;;9.53;8.13;;;14.20;85.50;;;-142.21;100.00;112049.66;5033018;28;20815;-71
2022/11/15 09:05:33;;;;;;;8.70;7.57;;;14.20;85.50;;;-142.21;100.00;112049.66;4998011;28;20445;-70
2022/11/15 09:08:00;;;;;;;9.77;8.10;;;14.30;85.40;;;-142.21;100.00;112049.66;5015182;28;20474;-71
2022/11/15 09:10:27;;;;;;;8.27;7.47;;;14.30;85.40;;;-142.21;100.00;112049.66;5012680;28;20485;-71
2022/11/15 09:12:54;;;;;;;8.63;7.83;;;14.30;85.20;;;-142.21;100.00;112049.66;5011858;28;21008;-71
2022/11/15 09:15:22;;;;;;;7.93;6.87;;;14.40;85.40;;;-142.21;100.00;112049.66;5012773;28;20954;-71
2022/11/15 09:17:50;;;;;;;7.70;6.90;;;14.40;85.10;;;-142.21;100.00;112049.66;5021530;28;20993;-71
2022/11/15 09:20:17;;;;;;;7.20;6.40;;;14.40;84.90;;;-142.21;100.00;112049.66;5032068;28;20477;-70
2022/11/15 09:22:45;;;;;;;5.97;5.47;;;14.50;85.00;;;-142.21;100.00;112049.66;5031417;28;20453;-71
2022/11/15 09:25:12;;;;;;;6.27;5.67;;;14.50;84.90;;;-142.21;100.00;112049.66;5032247;28;20532;-71
2022/11/15 09:27:43;;;;;;;4.63;4.20;;;14.50;85.00;;;-142.21;100.00;112049.66;5031485;28;20528;-71
2022/11/15 09:30:12;;;;;;;6.27;4.83;;;14.50;84.60;;;-142.21;100.00;112049.66;5032116;28;20476;-71
2022/11/15 09:32:39;;;;;;;4.73;4.30;;;14.50;84.60;;;-142.21;100.00;112049.66;5031873;28;20476;-71
2022/11/15 09:35:08;;;;;;;5.00;4.30;;;14.60;84.50;;;-142.21;100.00;112049.66;5032060;28;20527;-70
2022/11/15 09:37:35;;;;;;;5.23;4.27;;;14.60;84.50;;;-142.21;100.00;112049.66;5031873;28;20449;-70
2022/11/15 09:40:03;;;;;;;5.40;4.63;;;14.70;84.60;;;-142.21;100.00;112049.66;5032101;28;20511;-71
2022/11/15 09:42:52;;;;;;;6.80;4.43;;;14.70;84.70;;;-142.21;100.00;112049.66;5032072;28;20484;-71
2022/11/15 09:45:29;;;;;;;7.07;5.20;;;14.80;84.70;;;-142.21;100.00;112049.66;5032319;28;20492;-70
2022/11/15 09:48:43;;;;;;;5.33;4.53;;;14.80;84.90;;;-142.21;100.00;112049.66;5031881;28;20441;-71
2022/11/15 09:51:28;;;;;;;5.77;4.67;;;14.80;85.50;;;-142.21;100.00;112049.66;5031882;28;20476;-71
2022/11/15 09:54:11;;;;;;;5.17;4.00;;;14.80;85.20;;;-142.21;100.00;112049.66;5032305;28;20530;-71
2022/11/15 09:56:43;;;;;;;5.53;4.03;;;14.90;85.00;;;-142.21;100.00;112049.66;5038325;28;20789;-70
2022/11/15 09:59:31;;;;;;;4.63;3.90;;;14.90;84.90;;;-142.21;100.00;112049.66;5038869;28;20468;-70
2022/11/15 10:02:17;;;;;;;5.63;4.07;;;14.90;84.90;;;-142.21;100.00;112049.66;5038444;28;20827;-71
2022/11/15 10:04:45;;;;;;;4.67;3.90;;;14.90;84.70;;;-142.21;100.00;112049.66;5037987;28;20479;-71
2022/11/15 10:07:22;;;;;;;4.70;3.73;;;14.90;84.30;;;-142.21;100.00;112049.66;5027664;28;20922;-71
2022/11/15 10:09:56;;;;;;;5.70;4.13;;;14.90;84.30;;;-142.21;100.00;112049.66;5018172;28;20950;-70
2022/11/15 10:12:24;;;;;;;7.77;4.40;;;15.00;85.20;;;-142.21;100.00;112049.66;5018629;28;20469;-70
2022/11/15 10:15:02;;;;;;;4.77;4.00;;;15.00;84.80;;;-142.21;100.00;112049.66;5018003;28;20485;-70
2022/11/15 10:18:04;;;;;;;4.33;3.80;;;15.00;84.70;;;-142.21;100.00;112049.66;5025625;28;20494;-70